sensor_id;sensor_type;location;lat;lon;timestamp;pressure;altitude;pressure_sealevel;temperature
6550;BMP280;15142;48.888;9.134;2023-07-30T00:02:26;97655.16;;;17.48
6550;BMP280;15142;48.888;9.134;2023-07-30T00:04:55;97658.44;;;17.48
6550;BMP280;15142;48.888;9.134;2023-07-30T00:07:23;97638.63;;;17.37
6550;BMP280;15142;48.888;9.134;2023-07-30T00:09:52;97648.84;;;17.34
6550;BMP280;15142;48.888;9.134;2023-07-30T00:12:20;97639.28;;;17.34
6550;BMP280;15142;48.888;9.134;2023-07-30T00:14:51;97654.09;;;17.37
6550;BMP280;15142;48.888;9.134;2023-07-30T00:17:20;97642.56;;;17.35
6550;BMP280;15142;48.888;9.134;2023-07-30T00:19:49;97640.97;;;17.30
6550;BMP280;15142;48.888;9.134;2023-07-30T00:22:17;97647.56;;;17.16
6550;BMP280;15142;48.888;9.134;2023-07-30T00:24:46;97660.59;;;17.08
6550;BMP280;15142;48.888;9.134;2023-07-30T00:27:14;97671.03;;;17.11
6550;BMP280;15142;48.888;9.134;2023-07-30T00:29:43;97681.66;;;16.98
6550;BMP280;15142;48.888;9.134;2023-07-30T00:32:14;97678.78;;;16.99
6550;BMP280;15142;48.888;9.134;2023-07-30T00:34:43;97686.59;;;17.03
6550;BMP280;15142;48.888;9.134;2023-07-30T00:37:12;97677.34;;;17.02
6550;BMP280;15142;48.888;9.134;2023-07-30T00:39:40;97670.06;;;17.04
6550;BMP280;15142;48.888;9.134;2023-07-30T00:42:09;97663.63;;;16.98
6550;BMP280;15142;48.888;9.134;2023-07-30T00:44:37;97679.53;;;17.00
6550;BMP280;15142;48.888;9.134;2023-07-30T00:47:06;97692.97;;;17.05
6550;BMP280;15142;48.888;9.134;2023-07-30T00:49:38;97692.97;;;17.05
6550;BMP280;15142;48.888;9.134;2023-07-30T00:52:07;97687.13;;;17.08
6550;BMP280;15142;48.888;9.134;2023-07-30T00:54:36;97690.81;;;17.07
6550;BMP280;15142;48.888;9.134;2023-07-30T00:57:05;97690.16;;;17.10
6550;BMP280;15142;48.888;9.134;2023-07-30T00:59:34;97699.28;;;17.19
6550;BMP280;15142;48.888;9.134;2023-07-30T01:02:04;97696.03;;;17.22
6550;BMP280;15142;48.888;9.134;2023-07-30T01:04:33;97689.38;;;17.21
6550;BMP280;15142;48.888;9.134;2023-07-30T01:07:06;97697.63;;;17.27
6550;BMP280;15142;48.888;9.134;2023-07-30T01:09:35;97701.63;;;17.24
6550;BMP280;15142;48.888;9.134;2023-07-30T01:12:05;97703.13;;;17.25
6550;BMP280;15142;48.888;9.134;2023-07-30T01:14:35;97708.72;;;17.27
6550;BMP280;15142;48.888;9.134;2023-07-30T01:17:05;97706.91;;;17.28
6550;BMP280;15142;48.888;9.134;2023-07-30T01:19:34;97711.53;;;17.34
6550;BMP280;15142;48.888;9.134;2023-07-30T01:22:05;97704.19;;;17.36
6550;BMP280;15142;48.888;9.134;2023-07-30T01:24:34;97714.94;;;17.38
6550;BMP280;15142;48.888;9.134;2023-07-30T01:27:05;97712.69;;;17.37
6550;BMP280;15142;48.888;9.134;2023-07-30T01:29:41;97712.38;;;17.38
6550;BMP280;15142;48.888;9.134;2023-07-30T01:32:11;97709.34;;;17.36
6550;BMP280;15142;48.888;9.134;2023-07-30T01:34:41;97721.19;;;17.37
6550;BMP280;15142;48.888;9.134;2023-07-30T01:37:12;97719.25;;;17.34
6550;BMP280;15142;48.888;9.134;2023-07-30T01:39:42;97719.56;;;17.33
6550;BMP280;15142;48.888;9.134;2023-07-30T01:42:12;97724.41;;;17.34
6550;BMP280;15142;48.888;9.134;2023-07-30T01:44:41;97724.84;;;17.36
6550;BMP280;15142;48.888;9.134;2023-07-30T01:47:09;97725.50;;;17.33
6550;BMP280;15142;48.888;9.134;2023-07-30T01:49:38;97728.38;;;17.32
6550;BMP280;15142;48.888;9.134;2023-07-30T01:52:07;97727.66;;;17.31
6550;BMP280;15142;48.888;9.134;2023-07-30T01:54:38;97717.31;;;17.31
6550;BMP280;15142;48.888;9.134;2023-07-30T01:57:08;97717.75;;;17.33
6550;BMP280;15142;48.888;9.134;2023-07-30T01:59:38;97729.56;;;17.34
6550;BMP280;15142;48.888;9.134;2023-07-30T02:02:07;97720.56;;;17.28
6550;BMP280;15142;48.888;9.134;2023-07-30T02:04:36;97721.41;;;17.20
6550;BMP280;15142;48.888;9.134;2023-07-30T02:07:05;97725.09;;;17.19
6550;BMP280;15142;48.888;9.134;2023-07-30T02:09:33;97717.13;;;17.24
6550;BMP280;15142;48.888;9.134;2023-07-30T02:12:06;97714.94;;;17.26
6550;BMP280;15142;48.888;9.134;2023-07-30T02:14:36;97714.50;;;17.36
6550;BMP280;15142;48.888;9.134;2023-07-30T02:17:05;97712.03;;;17.39
6550;BMP280;15142;48.888;9.134;2023-07-30T02:19:33;97715.69;;;17.38
6550;BMP280;15142;48.888;9.134;2023-07-30T02:22:02;97712.16;;;17.43
6550;BMP280;15142;48.888;9.134;2023-07-30T02:24:33;97719.47;;;17.41
6550;BMP280;15142;48.888;9.134;2023-07-30T02:27:05;97724.19;;;17.39
6550;BMP280;15142;48.888;9.134;2023-07-30T02:29:33;97724.19;;;17.39
6550;BMP280;15142;48.888;9.134;2023-07-30T02:32:02;97722.03;;;17.41
6550;BMP280;15142;48.888;9.134;2023-07-30T02:34:31;97720.84;;;17.38
6550;BMP280;15142;48.888;9.134;2023-07-30T02:37:00;97723.22;;;17.32
6550;BMP280;15142;48.888;9.134;2023-07-30T02:39:29;97729.44;;;17.31
6550;BMP280;15142;48.888;9.134;2023-07-30T02:41:57;97722.28;;;17.24
6550;BMP280;15142;48.888;9.134;2023-07-30T02:44:29;97726.13;;;17.18
6550;BMP280;15142;48.888;9.134;2023-07-30T02:46:57;97733.53;;;17.20
6550;BMP280;15142;48.888;9.134;2023-07-30T02:49:26;97752.34;;;17.20
6550;BMP280;15142;48.888;9.134;2023-07-30T02:51:56;97740.56;;;17.19
6550;BMP280;15142;48.888;9.134;2023-07-30T02:54:25;97745.72;;;17.19
6550;BMP280;15142;48.888;9.134;2023-07-30T02:56:53;97736.88;;;17.20
6550;BMP280;15142;48.888;9.134;2023-07-30T02:59:22;97745.28;;;17.17
6550;BMP280;15142;48.888;9.134;2023-07-30T03:01:53;97737.97;;;17.19
6550;BMP280;15142;48.888;9.134;2023-07-30T03:04:23;97741.19;;;17.16
6550;BMP280;15142;48.888;9.134;2023-07-30T03:06:51;97741.84;;;17.13
6550;BMP280;15142;48.888;9.134;2023-07-30T03:09:20;97753.78;;;17.18
6550;BMP280;15142;48.888;9.134;2023-07-30T03:11:49;97742.69;;;17.17
6550;BMP280;15142;48.888;9.134;2023-07-30T03:14:18;97736.78;;;17.17
6550;BMP280;15142;48.888;9.134;2023-07-30T03:16:48;97737.53;;;17.17
6550;BMP280;15142;48.888;9.134;2023-07-30T03:19:19;97742.03;;;17.20
6550;BMP280;15142;48.888;9.134;2023-07-30T03:21:48;97745.91;;;17.26
6550;BMP280;15142;48.888;9.134;2023-07-30T03:24:16;97734.19;;;17.29
6550;BMP280;15142;48.888;9.134;2023-07-30T03:26:45;97722.69;;;17.26
6550;BMP280;15142;48.888;9.134;2023-07-30T03:29:14;97735.81;;;17.33
6550;BMP280;15142;48.888;9.134;2023-07-30T03:31:43;97733.66;;;17.35
6550;BMP280;15142;48.888;9.134;2023-07-30T03:34:12;97733.66;;;17.35
6550;BMP280;15142;48.888;9.134;2023-07-30T03:36:43;97733.66;;;17.35
6550;BMP280;15142;48.888;9.134;2023-07-30T03:39:12;97741.41;;;17.35
6550;BMP280;15142;48.888;9.134;2023-07-30T03:41:41;97747.75;;;17.38
6550;BMP280;15142;48.888;9.134;2023-07-30T03:44:11;97744.50;;;17.29
6550;BMP280;15142;48.888;9.134;2023-07-30T03:46:41;97760.84;;;17.33
6550;BMP280;15142;48.888;9.134;2023-07-30T03:49:09;97763.75;;;17.31
6550;BMP280;15142;48.888;9.134;2023-07-30T03:51:38;97760.53;;;17.34
6550;BMP280;15142;48.888;9.134;2023-07-30T03:54:10;97760.66;;;17.38
6550;BMP280;15142;48.888;9.134;2023-07-30T03:56:39;97775.16;;;17.42
6550;BMP280;15142;48.888;9.134;2023-07-30T03:59:07;97766.53;;;17.50
6550;BMP280;15142;48.888;9.134;2023-07-30T04:01:36;97773.72;;;17.44
6550;BMP280;15142;48.888;9.134;2023-07-30T04:04:05;97776.84;;;17.50
6550;BMP280;15142;48.888;9.134;2023-07-30T04:06:34;97771.94;;;17.57
6550;BMP280;15142;48.888;9.134;2023-07-30T04:09:03;97768.22;;;17.58
6550;BMP280;15142;48.888;9.134;2023-07-30T04:11:34;97764.03;;;17.65
6550;BMP280;15142;48.888;9.134;2023-07-30T04:14:03;97778.56;;;17.58
6550;BMP280;15142;48.888;9.134;2023-07-30T04:16:34;97762.22;;;17.54
6550;BMP280;15142;48.888;9.134;2023-07-30T04:19:02;97761.91;;;17.55
6550;BMP280;15142;48.888;9.134;2023-07-30T04:21:31;97757.16;;;17.57
6550;BMP280;15142;48.888;9.134;2023-07-30T04:24:00;97764.19;;;17.57
6550;BMP280;15142;48.888;9.134;2023-07-30T04:26:28;97761.69;;;17.60
6550;BMP280;15142;48.888;9.134;2023-07-30T04:29:00;97780.69;;;17.67
6550;BMP280;15142;48.888;9.134;2023-07-30T04:31:29;97774.91;;;17.59
6550;BMP280;15142;48.888;9.134;2023-07-30T04:33:58;97771.94;;;17.57
6550;BMP280;15142;48.888;9.134;2023-07-30T04:36:26;97774.91;;;17.59
6550;BMP280;15142;48.888;9.134;2023-07-30T04:38:55;97788.34;;;17.64
6550;BMP280;15142;48.888;9.134;2023-07-30T04:41:30;97796.09;;;17.64
6550;BMP280;15142;48.888;9.134;2023-07-30T04:44:01;97792.97;;;17.70
6550;BMP280;15142;48.888;9.134;2023-07-30T04:46:30;97790.16;;;17.75
6550;BMP280;15142;48.888;9.134;2023-07-30T04:49:01;97785.63;;;17.84
6550;BMP280;15142;48.888;9.134;2023-07-30T04:51:31;97790.34;;;17.82
6550;BMP280;15142;48.888;9.134;2023-07-30T04:53:59;97796.34;;;17.86
6550;BMP280;15142;48.888;9.134;2023-07-30T04:56:28;97807.97;;;17.80
6550;BMP280;15142;48.888;9.134;2023-07-30T04:58:57;97803.28;;;17.70
6550;BMP280;15142;48.888;9.134;2023-07-30T05:01:28;97817.47;;;17.76
6550;BMP280;15142;48.888;9.134;2023-07-30T05:03:57;97811.38;;;17.69
6550;BMP280;15142;48.888;9.134;2023-07-30T05:06:25;97821.78;;;17.72
6550;BMP280;15142;48.888;9.134;2023-07-30T05:08:54;97816.84;;;17.67
6550;BMP280;15142;48.888;9.134;2023-07-30T05:11:22;97818.47;;;17.60
6550;BMP280;15142;48.888;9.134;2023-07-30T05:13:51;97832.16;;;17.61
6550;BMP280;15142;48.888;9.134;2023-07-30T05:16:20;97833.94;;;17.60
6550;BMP280;15142;48.888;9.134;2023-07-30T05:18:51;97837.31;;;17.61
6550;BMP280;15142;48.888;9.134;2023-07-30T05:21:19;97839.03;;;17.57
6550;BMP280;15142;48.888;9.134;2023-07-30T05:23:48;97830.75;;;17.51
6550;BMP280;15142;48.888;9.134;2023-07-30T05:26:16;97838.91;;;17.53
6550;BMP280;15142;48.888;9.134;2023-07-30T05:28:45;97839.03;;;17.45
6550;BMP280;15142;48.888;9.134;2023-07-30T05:31:14;97825.25;;;17.41
6550;BMP280;15142;48.888;9.134;2023-07-30T05:33:42;97824.16;;;17.30
6550;BMP280;15142;48.888;9.134;2023-07-30T05:36:13;97827.19;;;17.32
6550;BMP280;15142;48.888;9.134;2023-07-30T05:38:42;97820.59;;;17.35
6550;BMP280;15142;48.888;9.134;2023-07-30T05:41:11;97810.66;;;17.33
6550;BMP280;15142;48.888;9.134;2023-07-30T05:43:39;97813.09;;;17.41
6550;BMP280;15142;48.888;9.134;2023-07-30T05:46:08;97812.97;;;17.50
6550;BMP280;15142;48.888;9.134;2023-07-30T05:48:36;97807.72;;;17.46
6550;BMP280;15142;48.888;9.134;2023-07-30T05:51:05;97818.56;;;17.40
6550;BMP280;15142;48.888;9.134;2023-07-30T05:53:37;97812.81;;;17.43
6550;BMP280;15142;48.888;9.134;2023-07-30T05:56:05;97815.44;;;17.35
6550;BMP280;15142;48.888;9.134;2023-07-30T05:58:34;97831.28;;;17.45
6550;BMP280;15142;48.888;9.134;2023-07-30T06:01:02;97816.34;;;17.38
6550;BMP280;15142;48.888;9.134;2023-07-30T06:03:30;97824.81;;;17.39
6550;BMP280;15142;48.888;9.134;2023-07-30T06:06:00;97830.44;;;17.41
6550;BMP280;15142;48.888;9.134;2023-07-30T06:08:29;97823.00;;;17.39
6550;BMP280;15142;48.888;9.134;2023-07-30T06:11:03;97811.94;;;17.27
6550;BMP280;15142;48.888;9.134;2023-07-30T06:13:31;97811.06;;;17.35
6550;BMP280;15142;48.888;9.134;2023-07-30T06:16:00;97812.03;;;17.42
6550;BMP280;15142;48.888;9.134;2023-07-30T06:18:29;97812.97;;;17.50
6550;BMP280;15142;48.888;9.134;2023-07-30T06:20:57;97825.69;;;17.55
6550;BMP280;15142;48.888;9.134;2023-07-30T06:23:26;97827.41;;;17.63
6550;BMP280;15142;48.888;9.134;2023-07-30T06:25:54;97836.19;;;17.73
6550;BMP280;15142;48.888;9.134;2023-07-30T06:28:25;97825.63;;;17.78
6550;BMP280;15142;48.888;9.134;2023-07-30T06:30:54;97823.72;;;17.87
6550;BMP280;15142;48.888;9.134;2023-07-30T06:33:22;97820.81;;;17.89
6550;BMP280;15142;48.888;9.134;2023-07-30T06:35:51;97820.84;;;18.04
6550;BMP280;15142;48.888;9.134;2023-07-30T06:38:19;97816.75;;;18.15
6550;BMP280;15142;48.888;9.134;2023-07-30T06:40:48;97823.06;;;18.17
6550;BMP280;15142;48.888;9.134;2023-07-30T06:43:17;97831.75;;;18.36
6550;BMP280;15142;48.888;9.134;2023-07-30T06:45:48;97845.16;;;18.42
6550;BMP280;15142;48.888;9.134;2023-07-30T06:48:16;97838.03;;;18.50
6550;BMP280;15142;48.888;9.134;2023-07-30T06:50:45;97856.94;;;18.81
6550;BMP280;15142;48.888;9.134;2023-07-30T06:53:14;97864.19;;;18.91
6550;BMP280;15142;48.888;9.134;2023-07-30T06:55:42;97858.13;;;18.84
6550;BMP280;15142;48.888;9.134;2023-07-30T06:58:11;97851.91;;;18.73
6550;BMP280;15142;48.888;9.134;2023-07-30T07:00:40;97872.38;;;18.93
6550;BMP280;15142;48.888;9.134;2023-07-30T07:03:11;97862.50;;;18.83
6550;BMP280;15142;48.888;9.134;2023-07-30T07:05:40;97864.19;;;18.91
6550;BMP280;15142;48.888;9.134;2023-07-30T07:08:08;97860.28;;;18.97
6550;BMP280;15142;48.888;9.134;2023-07-30T07:10:36;97859.22;;;18.98
6550;BMP280;15142;48.888;9.134;2023-07-30T07:13:05;97867.47;;;18.88
6550;BMP280;15142;48.888;9.134;2023-07-30T07:15:33;97876.38;;;18.91
6550;BMP280;15142;48.888;9.134;2023-07-30T07:18:02;97881.22;;;18.92
6550;BMP280;15142;48.888;9.134;2023-07-30T07:20:33;97872.38;;;18.93
6550;BMP280;15142;48.888;9.134;2023-07-30T07:23:02;97882.56;;;19.01
6550;BMP280;15142;48.888;9.134;2023-07-30T07:25:31;97878.56;;;19.04
6550;BMP280;15142;48.888;9.134;2023-07-30T07:27:59;97888.75;;;18.97
6550;BMP280;15142;48.888;9.134;2023-07-30T07:30:28;97894.19;;;19.07
6550;BMP280;15142;48.888;9.134;2023-07-30T07:32:57;97906.88;;;19.12
6550;BMP280;15142;48.888;9.134;2023-07-30T07:35:25;97901.50;;;19.05
6550;BMP280;15142;48.888;9.134;2023-07-30T07:37:56;97906.41;;;18.95
6550;BMP280;15142;48.888;9.134;2023-07-30T07:40:25;97902.94;;;19.03
6550;BMP280;15142;48.888;9.134;2023-07-30T07:42:54;97909.00;;;18.95
6550;BMP280;15142;48.888;9.134;2023-07-30T07:45:23;97913.72;;;18.63
6550;BMP280;15142;48.888;9.134;2023-07-30T07:47:51;97921.75;;;18.46
6550;BMP280;15142;48.888;9.134;2023-07-30T07:50:20;97912.66;;;18.25
6550;BMP280;15142;48.888;9.134;2023-07-30T07:52:48;97910.06;;;18.25
6550;BMP280;15142;48.888;9.134;2023-07-30T07:55:20;97912.75;;;18.28
6550;BMP280;15142;48.888;9.134;2023-07-30T07:57:48;97914.47;;;18.24
6550;BMP280;15142;48.888;9.134;2023-07-30T08:00:17;97909.72;;;18.26
6550;BMP280;15142;48.888;9.134;2023-07-30T08:02:46;97900.53;;;18.41
6550;BMP280;15142;48.888;9.134;2023-07-30T08:05:15;97904.41;;;18.62
6550;BMP280;15142;48.888;9.134;2023-07-30T08:07:46;97910.28;;;18.59
6550;BMP280;15142;48.888;9.134;2023-07-30T08:10:14;97906.78;;;18.67
6550;BMP280;15142;48.888;9.134;2023-07-30T08:15:17;97919.34;;;18.80
6550;BMP280;15142;48.888;9.134;2023-07-30T08:17:46;97910.03;;;18.64
6550;BMP280;15142;48.888;9.134;2023-07-30T08:20:15;97912.41;;;18.69
6550;BMP280;15142;48.888;9.134;2023-07-30T08:22:44;97916.97;;;19.02
6550;BMP280;15142;48.888;9.134;2023-07-30T08:25:12;97918.81;;;19.17
6550;BMP280;15142;48.888;9.134;2023-07-30T08:27:41;97918.41;;;19.45
6550;BMP280;15142;48.888;9.134;2023-07-30T08:30:11;97917.88;;;19.55
6550;BMP280;15142;48.888;9.134;2023-07-30T08:32:42;97905.13;;;19.62
6550;BMP280;15142;48.888;9.134;2023-07-30T08:35:11;97906.97;;;19.95
6550;BMP280;15142;48.888;9.134;2023-07-30T08:37:39;97904.22;;;19.88
6550;BMP280;15142;48.888;9.134;2023-07-30T08:40:09;97886.94;;;19.77
6550;BMP280;15142;48.888;9.134;2023-07-30T08:42:38;97900.09;;;19.69
6550;BMP280;15142;48.888;9.134;2023-07-30T08:45:07;97891.75;;;19.60
6550;BMP280;15142;48.888;9.134;2023-07-30T08:47:37;97889.59;;;19.62
6550;BMP280;15142;48.888;9.134;2023-07-30T08:50:09;97893.59;;;19.93
6550;BMP280;15142;48.888;9.134;2023-07-30T08:52:37;97893.13;;;20.07
6550;BMP280;15142;48.888;9.134;2023-07-30T08:55:07;97896.75;;;20.02
6550;BMP280;15142;48.888;9.134;2023-07-30T08:57:37;97895.38;;;20.08
6550;BMP280;15142;48.888;9.134;2023-07-30T09:00:09;97898.25;;;20.03
6550;BMP280;15142;48.888;9.134;2023-07-30T09:02:41;97897.97;;;20.08
6550;BMP280;15142;48.888;9.134;2023-07-30T09:05:14;97915.19;;;20.34
6550;BMP280;15142;48.888;9.134;2023-07-30T09:07:43;97905.66;;;20.60
6550;BMP280;15142;48.888;9.134;2023-07-30T09:10:11;97906.47;;;20.64
6550;BMP280;15142;48.888;9.134;2023-07-30T09:12:40;97910.00;;;20.53
6550;BMP280;15142;48.888;9.134;2023-07-30T09:15:09;97919.13;;;20.47
6550;BMP280;15142;48.888;9.134;2023-07-30T09:17:38;97916.13;;;20.64
6550;BMP280;15142;48.888;9.134;2023-07-30T09:20:07;97918.75;;;20.45
6550;BMP280;15142;48.888;9.134;2023-07-30T09:22:39;97916.28;;;20.34
6550;BMP280;15142;48.888;9.134;2023-07-30T09:25:08;97917.00;;;20.15
6550;BMP280;15142;48.888;9.134;2023-07-30T09:27:36;97916.66;;;20.17
6550;BMP280;15142;48.888;9.134;2023-07-30T09:30:07;97914.50;;;20.19
6550;BMP280;15142;48.888;9.134;2023-07-30T09:32:35;97919.00;;;20.22
6550;BMP280;15142;48.888;9.134;2023-07-30T09:35:04;97908.91;;;20.35
6550;BMP280;15142;48.888;9.134;2023-07-30T09:37:39;97915.44;;;20.67
6550;BMP280;15142;48.888;9.134;2023-07-30T09:40:10;97919.69;;;21.19
6550;BMP280;15142;48.888;9.134;2023-07-30T09:42:42;97923.84;;;21.23
6550;BMP280;15142;48.888;9.134;2023-07-30T09:45:16;97932.75;;;21.26
6550;BMP280;15142;48.888;9.134;2023-07-30T09:47:48;97934.63;;;21.03
6550;BMP280;15142;48.888;9.134;2023-07-30T09:50:17;97921.72;;;20.85
6550;BMP280;15142;48.888;9.134;2023-07-30T09:52:49;97935.59;;;20.95
6550;BMP280;15142;48.888;9.134;2023-07-30T09:55:17;97937.00;;;20.89
6550;BMP280;15142;48.888;9.134;2023-07-30T09:57:46;97932.41;;;20.83
6550;BMP280;15142;48.888;9.134;2023-07-30T10:00:15;97935.38;;;21.04
6550;BMP280;15142;48.888;9.134;2023-07-30T10:02:46;97940.69;;;21.33
6550;BMP280;15142;48.888;9.134;2023-07-30T10:05:16;97939.47;;;21.27
6550;BMP280;15142;48.888;9.134;2023-07-30T10:07:51;97931.50;;;21.39
6550;BMP280;15142;48.888;9.134;2023-07-30T10:10:24;97939.34;;;21.20
6550;BMP280;15142;48.888;9.134;2023-07-30T10:12:55;97933.75;;;21.62
6550;BMP280;15142;48.888;9.134;2023-07-30T10:15:25;97950.53;;;21.68
6550;BMP280;15142;48.888;9.134;2023-07-30T10:17:56;97955.19;;;21.59
6550;BMP280;15142;48.888;9.134;2023-07-30T10:20:26;97939.94;;;21.54
6550;BMP280;15142;48.888;9.134;2023-07-30T10:22:59;97949.41;;;21.94
6550;BMP280;15142;48.888;9.134;2023-07-30T10:25:29;97949.03;;;21.96
6550;BMP280;15142;48.888;9.134;2023-07-30T10:27:58;97963.00;;;22.10
6550;BMP280;15142;48.888;9.134;2023-07-30T10:30:30;97953.56;;;22.28
6550;BMP280;15142;48.888;9.134;2023-07-30T10:33:04;97960.63;;;22.31
6550;BMP280;15142;48.888;9.134;2023-07-30T10:35:40;97944.13;;;22.17
6550;BMP280;15142;48.888;9.134;2023-07-30T10:38:19;97952.00;;;21.94
6550;BMP280;15142;48.888;9.134;2023-07-30T10:41:00;97956.41;;;21.65
6550;BMP280;15142;48.888;9.134;2023-07-30T10:43:30;97951.53;;;21.89
6550;BMP280;15142;48.888;9.134;2023-07-30T10:45:58;97952.47;;;22.03
6550;BMP280;15142;48.888;9.134;2023-07-30T10:48:31;97942.13;;;22.36
6550;BMP280;15142;48.888;9.134;2023-07-30T10:51:02;97952.03;;;22.27
6550;BMP280;15142;48.888;9.134;2023-07-30T10:53:34;97955.75;;;22.29
6550;BMP280;15142;48.888;9.134;2023-07-30T10:56:05;97952.91;;;22.38
6550;BMP280;15142;48.888;9.134;2023-07-30T10:58:35;97946.00;;;21.65
6550;BMP280;15142;48.888;9.134;2023-07-30T11:01:05;97941.09;;;21.35
6550;BMP280;15142;48.888;9.134;2023-07-30T11:03:35;97947.09;;;21.39
6550;BMP280;15142;48.888;9.134;2023-07-30T11:06:04;97950.41;;;21.61
6550;BMP280;15142;48.888;9.134;2023-07-30T11:08:37;97956.78;;;21.41
6550;BMP280;15142;48.888;9.134;2023-07-30T11:11:07;97959.31;;;21.16
6550;BMP280;15142;48.888;9.134;2023-07-30T11:13:37;97958.44;;;20.68
6550;BMP280;15142;48.888;9.134;2023-07-30T11:16:07;97987.75;;;20.16
6550;BMP280;15142;48.888;9.134;2023-07-30T11:18:37;97977.13;;;19.72
6550;BMP280;15142;48.888;9.134;2023-07-30T11:21:06;97985.97;;;19.40
6550;BMP280;15142;48.888;9.134;2023-07-30T11:23:39;97982.94;;;19.23
6550;BMP280;15142;48.888;9.134;2023-07-30T11:26:13;97989.03;;;19.15
6550;BMP280;15142;48.888;9.134;2023-07-30T11:28:42;97991.63;;;19.30
6550;BMP280;15142;48.888;9.134;2023-07-30T11:31:12;97993.81;;;19.59
6550;BMP280;15142;48.888;9.134;2023-07-30T11:33:43;97988.47;;;19.82
6550;BMP280;15142;48.888;9.134;2023-07-30T11:36:15;97990.34;;;20.16
6550;BMP280;15142;48.888;9.134;2023-07-30T11:38:46;98016.00;;;20.92
6550;BMP280;15142;48.888;9.134;2023-07-30T11:41:15;97997.88;;;22.09
6550;BMP280;15142;48.888;9.134;2023-07-30T11:43:45;97995.19;;;22.31
6550;BMP280;15142;48.888;9.134;2023-07-30T11:46:15;98005.66;;;22.35
6550;BMP280;15142;48.888;9.134;2023-07-30T11:48:46;97996.75;;;22.07
6550;BMP280;15142;48.888;9.134;2023-07-30T11:51:22;98002.31;;;22.99
6550;BMP280;15142;48.888;9.134;2023-07-30T11:53:54;98005.81;;;22.81
6550;BMP280;15142;48.888;9.134;2023-07-30T11:56:25;98021.97;;;22.96
6550;BMP280;15142;48.888;9.134;2023-07-30T11:58:55;97999.75;;;22.38
6550;BMP280;15142;48.888;9.134;2023-07-30T12:01:25;98000.44;;;22.35
6550;BMP280;15142;48.888;9.134;2023-07-30T12:03:54;98007.97;;;23.11
6550;BMP280;15142;48.888;9.134;2023-07-30T12:06:24;98012.03;;;23.05
6550;BMP280;15142;48.888;9.134;2023-07-30T12:09:12;98004.75;;;23.70
6550;BMP280;15142;48.888;9.134;2023-07-30T12:11:46;97999.16;;;22.87
6550;BMP280;15142;48.888;9.134;2023-07-30T12:14:15;97982.31;;;22.74
6550;BMP280;15142;48.888;9.134;2023-07-30T12:16:44;97981.88;;;22.07
6550;BMP280;15142;48.888;9.134;2023-07-30T12:19:13;97982.63;;;21.57
6550;BMP280;15142;48.888;9.134;2023-07-30T12:21:42;97980.75;;;21.32
6550;BMP280;15142;48.888;9.134;2023-07-30T12:24:13;97999.53;;;21.69
6550;BMP280;15142;48.888;9.134;2023-07-30T12:26:41;98009.22;;;22.52
6550;BMP280;15142;48.888;9.134;2023-07-30T12:29:10;98013.63;;;22.81
6550;BMP280;15142;48.888;9.134;2023-07-30T12:31:38;98005.69;;;23.06
6550;BMP280;15142;48.888;9.134;2023-07-30T12:34:07;98000.00;;;23.83
6550;BMP280;15142;48.888;9.134;2023-07-30T12:36:35;97999.13;;;23.65
6550;BMP280;15142;48.888;9.134;2023-07-30T12:39:04;97992.75;;;23.13
6550;BMP280;15142;48.888;9.134;2023-07-30T12:41:36;97997.88;;;23.06
6550;BMP280;15142;48.888;9.134;2023-07-30T12:44:05;98009.00;;;23.95
6550;BMP280;15142;48.888;9.134;2023-07-30T12:46:35;98005.50;;;23.71
6550;BMP280;15142;48.888;9.134;2023-07-30T12:49:03;98014.13;;;24.62
6550;BMP280;15142;48.888;9.134;2023-07-30T12:51:33;98016.03;;;23.92
6550;BMP280;15142;48.888;9.134;2023-07-30T12:54:02;98006.97;;;24.45
6550;BMP280;15142;48.888;9.134;2023-07-30T12:56:30;98008.63;;;25.08
6550;BMP280;15142;48.888;9.134;2023-07-30T12:59:01;98002.94;;;24.65
6550;BMP280;15142;48.888;9.134;2023-07-30T13:01:30;98019.81;;;25.26
6550;BMP280;15142;48.888;9.134;2023-07-30T13:03:58;98001.38;;;24.40
6550;BMP280;15142;48.888;9.134;2023-07-30T13:06:27;98001.09;;;23.78
6550;BMP280;15142;48.888;9.134;2023-07-30T13:08:56;97999.44;;;23.60
6550;BMP280;15142;48.888;9.134;2023-07-30T13:11:24;98005.13;;;24.46
6550;BMP280;15142;48.888;9.134;2023-07-30T13:13:53;98016.78;;;23.92
6550;BMP280;15142;48.888;9.134;2023-07-30T13:16:24;97997.53;;;24.17
6550;BMP280;15142;48.888;9.134;2023-07-30T13:18:52;98021.50;;;24.40
6550;BMP280;15142;48.888;9.134;2023-07-30T13:21:22;98007.81;;;23.83
6550;BMP280;15142;48.888;9.134;2023-07-30T13:23:51;98011.50;;;23.82
6550;BMP280;15142;48.888;9.134;2023-07-30T13:26:23;98007.84;;;25.01
6550;BMP280;15142;48.888;9.134;2023-07-30T13:28:51;98018.66;;;25.58
6550;BMP280;15142;48.888;9.134;2023-07-30T13:31:20;97998.50;;;25.48
6550;BMP280;15142;48.888;9.134;2023-07-30T13:33:51;97999.63;;;25.06
6550;BMP280;15142;48.888;9.134;2023-07-30T13:36:20;98008.09;;;24.45
6550;BMP280;15142;48.888;9.134;2023-07-30T13:38:48;97999.78;;;24.19
6550;BMP280;15142;48.888;9.134;2023-07-30T13:41:17;98020.94;;;25.11
6550;BMP280;15142;48.888;9.134;2023-07-30T13:43:46;98002.19;;;24.58
6550;BMP280;15142;48.888;9.134;2023-07-30T13:46:14;98025.59;;;24.41
6550;BMP280;15142;48.888;9.134;2023-07-30T13:48:43;98015.59;;;23.76
6550;BMP280;15142;48.888;9.134;2023-07-30T13:51:14;98024.44;;;24.28
6550;BMP280;15142;48.888;9.134;2023-07-30T13:53:42;98013.31;;;24.51
6550;BMP280;15142;48.888;9.134;2023-07-30T13:56:11;98031.31;;;24.77
6550;BMP280;15142;48.888;9.134;2023-07-30T13:58:40;98032.09;;;24.91
6550;BMP280;15142;48.888;9.134;2023-07-30T14:01:09;98040.13;;;24.35
6550;BMP280;15142;48.888;9.134;2023-07-30T14:03:37;98037.75;;;24.02
6550;BMP280;15142;48.888;9.134;2023-07-30T14:06:06;98041.16;;;24.13
6550;BMP280;15142;48.888;9.134;2023-07-30T14:08:37;98031.53;;;23.68
6550;BMP280;15142;48.888;9.134;2023-07-30T14:11:06;98025.56;;;24.37
6550;BMP280;15142;48.888;9.134;2023-07-30T14:13:34;98034.34;;;24.93
6550;BMP280;15142;48.888;9.134;2023-07-30T14:16:03;98038.47;;;23.46
6550;BMP280;15142;48.888;9.134;2023-07-30T14:18:32;98039.25;;;23.11
6550;BMP280;15142;48.888;9.134;2023-07-30T14:21:02;98032.34;;;22.90
6550;BMP280;15142;48.888;9.134;2023-07-30T14:23:31;98045.47;;;22.68
6550;BMP280;15142;48.888;9.134;2023-07-30T14:26:02;98052.03;;;23.23
6550;BMP280;15142;48.888;9.134;2023-07-30T14:28:30;98053.38;;;23.10
6550;BMP280;15142;48.888;9.134;2023-07-30T14:30:59;98056.38;;;23.12
6550;BMP280;15142;48.888;9.134;2023-07-30T14:33:28;98059.59;;;23.35
6550;BMP280;15142;48.888;9.134;2023-07-30T14:35:56;98056.59;;;23.00
6550;BMP280;15142;48.888;9.134;2023-07-30T14:38:25;98055.16;;;22.70